Terminal Aerodrome Forecast
Issued by NWS

Home | Current Version | Previous Version | Text Only | Print | Product List | Glossary On
Versions: 1 2 3 4 5 6 7 8 9 10 11 12 13 14 15 16 17 18 19 20
000
FTUS46 KSEW 011100
TAFOLM
TAF
KOLM 011124Z 0112/0212 17004KT P6SM SCT200
      TEMPO 0112/0115 1/2SM FZFG SCT001
     FM011800 18005KT P6SM SCT200
     FM020000 23005KT P6SM BKN150 OVC200
     FM020500 01003KT P6SM BKN070 OVC120
     FM020900 VRB03KT P6SM BKN020 OVC040=

USA.gov is the U.S. government's official web portal to all federal, state and local government web resources and services.